createdAt,value
2022-11-30T00:01:23.308Z,6.36
2022-11-30T00:03:54.729Z,6.37
2022-11-30T00:06:23.906Z,6.37
2022-11-30T00:08:53.618Z,6.36
2022-11-30T00:11:22.676Z,6.35
2022-11-30T00:13:52.171Z,6.36
2022-11-30T00:16:19.866Z,6.37
2022-11-30T00:18:47.677Z,6.37
2022-11-30T00:21:16.125Z,6.36
2022-11-30T00:23:45.418Z,6.39
2022-11-30T00:26:17.733Z,6.37
2022-11-30T00:28:46.040Z,6.37
2022-11-30T00:31:17.239Z,6.36
2022-11-30T00:33:45.621Z,6.36
2022-11-30T00:36:14.698Z,6.35
2022-11-30T00:38:42.903Z,6.35
2022-11-30T00:41:10.955Z,6.34
2022-11-30T00:43:38.703Z,6.33
2022-11-30T00:46:09.179Z,6.33
2022-11-30T00:48:40.385Z,6.34
2022-11-30T00:51:09.905Z,6.34
2022-11-30T00:53:37.711Z,6.35
2022-11-30T00:56:06.063Z,6.35
2022-11-30T00:58:34.049Z,6.35
2022-11-30T01:01:02.125Z,6.34
2022-11-30T01:03:30.105Z,6.34
2022-11-30T01:06:03.991Z,6.36
2022-11-30T01:08:31.901Z,6.36
2022-11-30T01:11:06.484Z,6.37
2022-11-30T01:13:34.298Z,6.37
2022-11-30T01:16:02.052Z,6.38
2022-11-30T01:18:29.787Z,6.37
2022-11-30T01:20:57.462Z,6.37
2022-11-30T01:23:26.546Z,6.34
2022-11-30T01:25:57.287Z,6.35
2022-11-30T01:28:24.962Z,6.32
2022-11-30T01:30:59.854Z,6.33
2022-11-30T01:33:27.693Z,6.33
2022-11-30T01:36:03.096Z,6.32
2022-11-30T01:38:35.006Z,6.34
2022-11-30T01:41:03.775Z,6.34
2022-11-30T01:43:42.773Z,6.36
2022-11-30T01:46:33.290Z,6.36
2022-11-30T01:49:06.148Z,6.35
2022-11-30T01:51:37.194Z,6.37
2022-11-30T01:54:10.141Z,6.37
2022-11-30T01:56:38.424Z,6.36
2022-11-30T01:59:06.144Z,6.36
2022-11-30T02:01:34.147Z,6.36
2022-11-30T02:04:07.640Z,6.36
2022-11-30T02:06:35.782Z,6.36
2022-11-30T02:09:03.864Z,6.37
2022-11-30T02:11:33.224Z,6.36
2022-11-30T02:14:15.234Z,6.35
2022-11-30T02:16:55.129Z,6.35
2022-11-30T02:19:58.448Z,6.36
2022-11-30T02:22:44.677Z,6.37
2022-11-30T02:25:23.224Z,6.37
2022-11-30T02:28:10.858Z,6.37
2022-11-30T02:30:44.803Z,6.37
2022-11-30T02:33:16.641Z,6.38
2022-11-30T02:35:54.353Z,6.38
2022-11-30T02:38:24.196Z,6.39
2022-11-30T02:40:52.048Z,6.37
2022-11-30T02:43:21.214Z,6.38
2022-11-30T02:45:57.217Z,6.37
2022-11-30T02:48:30.873Z,6.38
2022-11-30T02:51:03.393Z,6.37
2022-11-30T02:53:31.582Z,6.38
2022-11-30T02:55:59.466Z,6.35
2022-11-30T02:58:27.246Z,6.36
2022-11-30T03:00:56.701Z,6.37
2022-11-30T03:03:24.511Z,6.35
2022-11-30T03:05:52.772Z,6.35
2022-11-30T03:08:20.533Z,6.36
2022-11-30T03:10:48.537Z,6.36
2022-11-30T03:13:16.272Z,6.37
2022-11-30T03:15:44.126Z,6.38
2022-11-30T03:18:14.160Z,6.37
2022-11-30T03:20:42.614Z,6.36
2022-11-30T03:23:10.801Z,6.35
2022-11-30T03:25:38.577Z,6.37
2022-11-30T03:28:06.574Z,6.37
2022-11-30T03:30:34.333Z,6.35
2022-11-30T03:33:02.050Z,6.36
2022-11-30T03:35:31.176Z,6.36
2022-11-30T03:37:59.002Z,6.36
2022-11-30T03:40:26.804Z,6.37
2022-11-30T03:42:54.524Z,6.36
2022-11-30T03:45:22.363Z,6.34
2022-11-30T03:47:50.193Z,6.36
2022-11-30T03:50:17.989Z,6.36
2022-11-30T03:52:47.199Z,6.36
2022-11-30T03:55:14.994Z,6.37
2022-11-30T03:57:42.750Z,6.36
2022-11-30T04:00:12.094Z,6.35
2022-11-30T04:02:44.526Z,6.32
2022-11-30T04:05:12.715Z,6.34
2022-11-30T04:07:40.557Z,6.36
2022-11-30T04:10:11.478Z,6.35
2022-11-30T04:12:39.265Z,6.36
2022-11-30T04:15:07.971Z,6.35
2022-11-30T04:17:35.790Z,6.36
2022-11-30T04:20:03.619Z,6.38
2022-11-30T04:22:31.402Z,6.37
2022-11-30T04:24:59.150Z,6.38
2022-11-30T04:27:29.835Z,6.38
2022-11-30T04:29:57.659Z,6.38
2022-11-30T04:32:25.495Z,6.39
2022-11-30T04:34:53.287Z,6.40
2022-11-30T04:37:21.068Z,6.39
2022-11-30T04:39:48.910Z,6.38
2022-11-30T04:42:16.706Z,6.41
2022-11-30T04:44:46.190Z,6.41
2022-11-30T04:47:14.288Z,6.40
2022-11-30T04:49:42.249Z,6.41
2022-11-30T04:52:10.238Z,6.41
2022-11-30T04:54:37.993Z,6.40
2022-11-30T04:57:06.478Z,6.37
2022-11-30T04:59:34.168Z,6.38
2022-11-30T05:02:03.272Z,6.40
2022-11-30T05:04:31.121Z,6.39
2022-11-30T05:06:58.851Z,6.38
2022-11-30T05:09:26.622Z,6.38
2022-11-30T05:11:54.315Z,6.38
2022-11-30T05:14:22.044Z,6.39
2022-11-30T05:16:49.846Z,6.40
2022-11-30T05:19:18.969Z,6.40
2022-11-30T05:21:47.289Z,6.40
2022-11-30T05:24:15.083Z,6.40
2022-11-30T05:26:42.902Z,6.40
2022-11-30T05:29:10.623Z,6.39
2022-11-30T05:31:40.958Z,6.39
2022-11-30T05:34:08.765Z,6.38
2022-11-30T05:36:37.826Z,6.39
2022-11-30T05:39:05.987Z,6.40
2022-11-30T05:41:34.063Z,6.42
2022-11-30T05:44:01.887Z,6.41
2022-11-30T05:46:29.702Z,6.41
2022-11-30T05:48:57.671Z,6.40
2022-11-30T05:51:25.361Z,6.42
2022-11-30T05:53:54.556Z,6.41
2022-11-30T05:56:23.109Z,6.41
2022-11-30T05:58:50.833Z,6.42
2022-11-30T06:01:20.259Z,6.42
2022-11-30T06:03:48.554Z,6.43
2022-11-30T06:06:16.228Z,6.44
2022-11-30T06:08:44.744Z,6.44
2022-11-30T06:11:14.203Z,6.44
2022-11-30T06:13:42.002Z,6.46
2022-11-30T06:16:10.500Z,6.48
2022-11-30T06:18:39.012Z,6.49
2022-11-30T06:21:08.743Z,6.49
2022-11-30T06:23:36.562Z,6.51
2022-11-30T06:26:05.838Z,6.48
2022-11-30T06:28:35.993Z,6.48
2022-11-30T06:31:05.644Z,6.49
2022-11-30T06:33:34.205Z,6.50
2022-11-30T06:36:01.949Z,6.49
2022-11-30T06:38:29.672Z,6.50
2022-11-30T06:41:04.018Z,6.50
2022-11-30T06:43:35.580Z,6.50
2022-11-30T06:46:04.528Z,6.52
2022-11-30T06:48:32.369Z,6.52
2022-11-30T06:51:00.402Z,6.55
2022-11-30T06:53:28.605Z,6.51
2022-11-30T06:55:56.253Z,6.50
2022-11-30T06:58:23.999Z,6.53
2022-11-30T07:00:53.092Z,6.52
2022-11-30T07:03:20.805Z,6.53
2022-11-30T07:05:48.530Z,6.51
2022-11-30T07:08:17.563Z,6.51
2022-11-30T07:10:46.621Z,6.48
2022-11-30T07:13:16.141Z,6.48
2022-11-30T07:15:44.933Z,6.46
2022-11-30T07:18:14.023Z,6.47
2022-11-30T07:20:41.806Z,6.47
2022-11-30T07:23:27.109Z,6.50
2022-11-30T07:26:07.588Z,6.50
2022-11-30T07:28:36.484Z,6.48
2022-11-30T07:31:16.178Z,6.51
2022-11-30T07:33:46.104Z,6.56
2022-11-30T07:36:13.922Z,6.56
2022-11-30T07:38:41.624Z,6.55
2022-11-30T07:41:09.828Z,6.54
2022-11-30T07:43:37.551Z,6.57
2022-11-30T07:46:06.114Z,6.58
2022-11-30T07:48:34.361Z,6.56
2022-11-30T07:51:07.907Z,6.55
2022-11-30T07:53:35.735Z,6.58
2022-11-30T07:56:05.500Z,6.61
2022-11-30T07:58:33.494Z,6.61
2022-11-30T08:01:05.657Z,6.64
2022-11-30T08:03:36.989Z,6.65
2022-11-30T08:06:08.454Z,6.70
2022-11-30T08:08:39.933Z,6.69
2022-11-30T08:11:09.379Z,6.72
2022-11-30T08:13:37.913Z,6.74
2022-11-30T08:16:07.836Z,6.75
2022-11-30T08:18:35.541Z,6.77
2022-11-30T08:21:05.058Z,6.82
2022-11-30T08:23:36.982Z,6.87
2022-11-30T08:26:06.956Z,6.87
2022-11-30T08:28:36.245Z,6.87
2022-11-30T08:31:04.968Z,6.94
2022-11-30T08:33:33.543Z,6.91
2022-11-30T08:36:07.817Z,6.90
2022-11-30T08:38:37.290Z,6.88
2022-11-30T08:41:06.004Z,6.87
2022-11-30T08:43:35.037Z,6.86
2022-11-30T08:46:15.923Z,6.91
2022-11-30T08:49:02.327Z,6.92
2022-11-30T08:52:08.758Z,6.93
2022-11-30T08:54:29.443Z,6.96
2022-11-30T08:56:57.232Z,6.96
2022-11-30T08:59:25.004Z,7.01
2022-11-30T09:01:52.745Z,7.02
2022-11-30T09:04:20.509Z,7.03
2022-11-30T09:06:48.179Z,7.05
2022-11-30T09:09:15.924Z,7.05
2022-11-30T09:11:45.090Z,7.05
2022-11-30T09:14:12.880Z,7.08
2022-11-30T09:16:40.652Z,7.09
2022-11-30T09:19:08.404Z,7.10
2022-11-30T09:21:36.223Z,7.08
2022-11-30T09:24:03.980Z,7.15
2022-11-30T09:26:32.010Z,7.16
2022-11-30T09:29:01.235Z,7.18
2022-11-30T09:31:29.471Z,7.19
2022-11-30T09:33:58.828Z,7.18
2022-11-30T09:36:29.118Z,7.20
2022-11-30T09:38:57.654Z,7.20
2022-11-30T09:41:46.569Z,7.20
2022-11-30T09:44:25.715Z,7.22
2022-11-30T09:47:02.820Z,7.23
2022-11-30T09:49:32.506Z,7.21
2022-11-30T09:52:04.728Z,7.21
2022-11-30T09:54:38.461Z,7.22
2022-11-30T09:57:19.861Z,7.20
2022-11-30T09:59:55.571Z,7.17
2022-11-30T10:02:29.267Z,7.16
2022-11-30T10:04:57.876Z,7.18
2022-11-30T10:07:42.279Z,7.22
2022-11-30T10:10:33.698Z,7.24
2022-11-30T10:13:17.450Z,7.31
2022-11-30T10:16:00.464Z,7.31
2022-11-30T10:18:37.925Z,7.32
2022-11-30T10:21:18.114Z,7.36
2022-11-30T10:23:59.691Z,7.34
2022-11-30T10:26:33.964Z,7.35
2022-11-30T10:29:08.465Z,7.34
2022-11-30T10:31:39.472Z,7.35
2022-11-30T10:34:20.284Z,7.32
2022-11-30T10:36:53.600Z,7.34
2022-11-30T10:39:26.582Z,7.37
2022-11-30T10:42:01.449Z,7.37
2022-11-30T10:44:33.021Z,7.42
2022-11-30T10:47:06.334Z,7.46
2022-11-30T10:49:34.662Z,7.50
2022-11-30T10:52:06.832Z,7.51
2022-11-30T10:54:37.358Z,7.56
2022-11-30T10:57:08.385Z,7.58
2022-11-30T10:59:42.873Z,7.64
2022-11-30T11:02:39.051Z,7.67
2022-11-30T11:05:21.845Z,7.68
2022-11-30T11:07:54.972Z,7.66
2022-11-30T11:10:29.291Z,7.70
2022-11-30T11:12:57.833Z,7.71
2022-11-30T11:15:27.384Z,7.74
2022-11-30T11:18:25.460Z,7.77
2022-11-30T11:21:06.084Z,7.81
2022-11-30T11:23:37.559Z,7.83
2022-11-30T11:26:06.789Z,7.86
2022-11-30T11:28:36.983Z,7.87
2022-11-30T11:31:18.840Z,7.85
2022-11-30T11:33:54.204Z,7.87
2022-11-30T11:36:27.680Z,7.89
2022-11-30T11:38:55.806Z,7.91
2022-11-30T11:41:28.279Z,7.89
2022-11-30T11:44:04.963Z,7.89
2022-11-30T11:46:34.110Z,7.92
2022-11-30T11:49:06.036Z,7.89
2022-11-30T11:51:36.372Z,7.91
2022-11-30T11:54:11.835Z,7.95
2022-11-30T11:56:39.543Z,8.01
2022-11-30T11:59:17.373Z,8.03
2022-11-30T12:01:53.261Z,8.10
2022-11-30T12:04:43.780Z,8.20
2022-11-30T12:07:19.394Z,8.29
2022-11-30T12:09:56.712Z,8.34
2022-11-30T12:12:24.441Z,8.38
2022-11-30T12:14:52.297Z,8.39
2022-11-30T12:17:36.058Z,8.40
2022-11-30T12:20:18.216Z,8.44
2022-11-30T12:23:01.466Z,8.42
2022-11-30T12:25:30.966Z,8.41
2022-11-30T12:28:15.096Z,8.35
2022-11-30T12:30:51.482Z,8.35
2022-11-30T12:33:32.821Z,8.37
2022-11-30T12:36:06.607Z,8.37
2022-11-30T12:38:46.963Z,8.36
2022-11-30T12:41:35.266Z,8.37
2022-11-30T12:44:16.265Z,8.36
2022-11-30T12:46:53.915Z,8.35
2022-11-30T12:49:34.430Z,8.31
2022-11-30T12:52:09.304Z,8.32
2022-11-30T12:54:46.915Z,8.32
2022-11-30T12:57:19.921Z,8.28
2022-11-30T12:59:53.575Z,8.28
2022-11-30T13:02:50.882Z,8.25
2022-11-30T13:05:24.515Z,8.28
2022-11-30T13:08:01.029Z,8.24
2022-11-30T13:10:34.977Z,8.18
2022-11-30T13:13:04.557Z,8.17
2022-11-30T13:15:35.629Z,8.15
2022-11-30T13:18:04.621Z,8.11
2022-11-30T13:20:39.848Z,8.12
2022-11-30T13:23:14.931Z,8.12
2022-11-30T13:28:52.050Z,8.13
2022-11-30T13:31:25.360Z,8.14
2022-11-30T13:33:59.327Z,8.14
2022-11-30T13:36:32.801Z,8.08
2022-11-30T13:39:32.573Z,8.08
2022-11-30T13:42:34.443Z,8.06
2022-11-30T13:45:20.067Z,8.03
2022-11-30T13:47:51.090Z,8.05
2022-11-30T13:50:26.246Z,8.03
2022-11-30T13:53:20.921Z,7.96
2022-11-30T13:55:57.602Z,7.91
2022-11-30T13:58:26.267Z,7.93
2022-11-30T14:01:24.054Z,7.91
2022-11-30T14:04:29.006Z,7.92
2022-11-30T14:06:59.232Z,7.97
2022-11-30T14:09:56.127Z,7.97
2022-11-30T14:12:57.305Z,7.94
2022-11-30T14:15:55.201Z,7.87
2022-11-30T14:18:33.997Z,7.86
2022-11-30T14:21:05.020Z,7.84
2022-11-30T14:23:44.332Z,7.82
2022-11-30T14:26:15.273Z,7.82
2022-11-30T14:28:48.319Z,7.83
2022-11-30T14:31:23.144Z,7.80
2022-11-30T14:33:55.098Z,7.77
2022-11-30T14:36:26.648Z,7.77
2022-11-30T14:38:54.414Z,7.75
2022-11-30T14:41:26.278Z,7.75
2022-11-30T14:44:08.360Z,7.80
2022-11-30T14:46:37.503Z,7.77
2022-11-30T14:49:14.534Z,7.72
2022-11-30T14:51:45.738Z,7.68
2022-11-30T14:54:27.316Z,7.70
2022-11-30T14:57:02.020Z,7.72
2022-11-30T14:59:42.672Z,7.73
2022-11-30T15:02:21.758Z,7.79
2022-11-30T15:04:52.150Z,7.82
2022-11-30T15:07:20.653Z,7.78
2022-11-30T15:09:51.469Z,7.78
2022-11-30T15:12:25.256Z,7.76
2022-11-30T15:15:15.950Z,7.75
2022-11-30T15:17:59.188Z,7.72
2022-11-30T15:20:30.393Z,7.71
2022-11-30T15:22:59.362Z,7.68
2022-11-30T15:25:32.643Z,7.69
2022-11-30T15:28:01.677Z,7.67
2022-11-30T15:30:29.979Z,7.66
2022-11-30T15:32:59.306Z,7.65
2022-11-30T15:35:43.923Z,7.67
2022-11-30T15:38:21.093Z,7.65
2022-11-30T15:40:54.535Z,7.65
2022-11-30T15:43:26.007Z,7.64
2022-11-30T15:45:56.501Z,7.64
2022-11-30T15:48:31.130Z,7.62
2022-11-30T15:50:59.781Z,7.60
2022-11-30T15:53:31.040Z,7.59
2022-11-30T15:56:01.596Z,7.56
2022-11-30T15:58:33.960Z,7.55
2022-11-30T16:01:09.153Z,7.55
2022-11-30T16:04:01.300Z,7.56
2022-11-30T16:06:31.882Z,7.53
2022-11-30T16:09:03.109Z,7.54
2022-11-30T16:11:30.998Z,7.53
2022-11-30T16:13:58.790Z,7.52
2022-11-30T16:16:30.440Z,7.49
2022-11-30T16:18:58.249Z,7.49
2022-11-30T16:21:27.502Z,7.50
2022-11-30T16:23:55.464Z,7.52
2022-11-30T16:26:43.594Z,7.54
2022-11-30T16:29:11.132Z,7.53
2022-11-30T16:31:39.034Z,7.51
2022-11-30T16:34:08.760Z,7.49
2022-11-30T16:36:39.400Z,7.47
2022-11-30T16:39:11.870Z,7.45
2022-11-30T16:41:39.649Z,7.44
2022-11-30T16:44:14.265Z,7.44
2022-11-30T16:46:42.109Z,7.46
2022-11-30T16:49:09.915Z,7.45
2022-11-30T16:51:41.688Z,7.45
2022-11-30T16:54:11.325Z,7.45
2022-11-30T16:56:39.071Z,7.46
2022-11-30T16:59:09.803Z,7.45
2022-11-30T17:01:44.122Z,7.41
2022-11-30T17:04:17.873Z,7.38
2022-11-30T17:06:50.707Z,7.37
2022-11-30T17:09:20.785Z,7.40
2022-11-30T17:11:51.207Z,7.33
2022-11-30T17:14:20.407Z,7.32
2022-11-30T17:16:48.310Z,7.30
2022-11-30T17:19:16.109Z,7.28
2022-11-30T17:21:44.803Z,7.27
2022-11-30T17:24:14.422Z,7.26
2022-11-30T17:26:42.228Z,7.26
2022-11-30T17:29:09.983Z,7.26
2022-11-30T17:31:38.064Z,7.26
2022-11-30T17:34:08.456Z,7.27
2022-11-30T17:36:36.437Z,7.25
2022-11-30T17:39:05.974Z,7.27
2022-11-30T17:41:35.307Z,7.27
2022-11-30T17:44:03.446Z,7.26
2022-11-30T17:46:31.312Z,7.25
2022-11-30T17:48:59.076Z,7.27
2022-11-30T17:51:26.991Z,7.24
2022-11-30T17:53:54.802Z,7.24
2022-11-30T17:56:22.628Z,7.23
2022-11-30T17:58:51.761Z,7.22
2022-11-30T18:01:21.991Z,7.22
2022-11-30T18:03:50.349Z,7.23
2022-11-30T18:06:18.755Z,7.21
2022-11-30T18:08:46.845Z,7.23
2022-11-30T18:11:16.679Z,7.20
2022-11-30T18:13:44.561Z,7.20
2022-11-30T18:16:16.160Z,7.19
2022-11-30T18:18:48.214Z,7.20
2022-11-30T18:21:18.853Z,7.18
2022-11-30T18:23:47.253Z,7.18
2022-11-30T18:26:16.578Z,7.16
2022-11-30T18:28:44.563Z,7.15
2022-11-30T18:31:14.001Z,7.18
2022-11-30T18:33:41.884Z,7.17
2022-11-30T18:36:10.237Z,7.16
2022-11-30T18:38:38.950Z,7.16
2022-11-30T18:41:07.648Z,7.14
2022-11-30T18:43:35.819Z,7.13
2022-11-30T18:46:04.543Z,7.12
2022-11-30T18:48:34.486Z,7.10
2022-11-30T18:51:11.076Z,7.10
2022-11-30T18:53:38.839Z,7.07
2022-11-30T18:56:11.001Z,7.06
2022-11-30T18:58:38.826Z,7.07
2022-11-30T19:01:11.092Z,7.06
2022-11-30T19:03:40.429Z,7.06
2022-11-30T19:06:09.413Z,7.05
2022-11-30T19:08:38.013Z,7.06
2022-11-30T19:11:06.832Z,7.05
2022-11-30T19:13:34.712Z,7.06
2022-11-30T19:16:03.993Z,7.05
2022-11-30T19:18:31.884Z,7.06
2022-11-30T19:21:01.186Z,7.07
2022-11-30T19:23:29.237Z,7.02
2022-11-30T19:26:01.400Z,7.01
2022-11-30T19:28:30.581Z,6.97
2022-11-30T19:30:58.585Z,6.96
2022-11-30T19:33:27.699Z,6.97
2022-11-30T19:36:02.676Z,6.95
2022-11-30T19:38:30.432Z,6.90
2022-11-30T19:40:58.662Z,6.90
2022-11-30T19:43:26.517Z,6.84
2022-11-30T19:45:54.251Z,6.83
2022-11-30T19:48:22.196Z,6.82
2022-11-30T19:50:49.979Z,6.79
2022-11-30T19:53:19.103Z,6.80
2022-11-30T19:55:46.907Z,6.81
2022-11-30T19:58:15.080Z,6.78
2022-11-30T20:00:46.042Z,6.78
2022-11-30T20:03:13.788Z,6.76
2022-11-30T20:05:41.538Z,6.75
2022-11-30T20:08:09.325Z,6.74
2022-11-30T20:10:41.267Z,6.75
2022-11-30T20:13:09.034Z,6.73
2022-11-30T20:15:39.115Z,6.73
2022-11-30T20:18:07.839Z,6.72
2022-11-30T20:20:36.473Z,6.68
2022-11-30T20:23:04.661Z,6.68
2022-11-30T20:25:33.097Z,6.65
2022-11-30T20:28:02.669Z,6.66
2022-11-30T20:30:30.529Z,6.66
2022-11-30T20:32:58.307Z,6.65
2022-11-30T20:35:26.087Z,6.64
2022-11-30T20:37:54.202Z,6.64
2022-11-30T20:40:21.998Z,6.64
2022-11-30T20:42:49.771Z,6.63
2022-11-30T20:45:18.921Z,6.60
2022-11-30T20:47:46.743Z,6.60
2022-11-30T20:50:14.539Z,6.62
2022-11-30T20:52:42.359Z,6.62
2022-11-30T20:55:10.838Z,6.60
2022-11-30T20:57:38.613Z,6.57
2022-11-30T21:00:12.954Z,6.57
2022-11-30T21:02:42.442Z,6.58
2022-11-30T21:05:10.507Z,6.59
2022-11-30T21:07:38.577Z,6.60
2022-11-30T21:10:07.995Z,6.61
2022-11-30T21:12:35.829Z,6.55
2022-11-30T21:15:03.668Z,6.53
2022-11-30T21:17:31.467Z,6.52
2022-11-30T21:20:01.156Z,6.50
2022-11-30T21:22:29.487Z,6.46
2022-11-30T21:24:57.301Z,6.47
2022-11-30T21:27:25.026Z,6.48
2022-11-30T21:29:52.811Z,6.48
2022-11-30T21:32:20.608Z,6.50
2022-11-30T21:34:48.538Z,6.49
2022-11-30T21:37:18.279Z,6.49
2022-11-30T21:39:45.990Z,6.48
2022-11-30T21:42:13.698Z,6.49
2022-11-30T21:44:41.439Z,6.48
2022-11-30T21:47:11.979Z,6.45
2022-11-30T21:49:39.723Z,6.44
2022-11-30T21:52:07.399Z,6.44
2022-11-30T21:54:36.536Z,6.44
2022-11-30T21:57:04.571Z,6.47
2022-11-30T21:59:32.445Z,6.48
2022-11-30T22:02:00.369Z,6.45
2022-11-30T22:04:28.264Z,6.45
2022-11-30T22:06:56.122Z,6.48
2022-11-30T22:09:23.930Z,6.49
2022-11-30T22:11:53.141Z,6.49
2022-11-30T22:14:20.992Z,6.52
2022-11-30T22:16:48.876Z,6.54
2022-11-30T22:19:17.674Z,6.55
2022-11-30T22:21:49.926Z,6.55
2022-11-30T22:24:18.281Z,6.55
2022-11-30T22:26:46.895Z,6.54
2022-11-30T22:29:18.365Z,6.51
2022-11-30T22:31:48.119Z,6.51
2022-11-30T22:34:16.452Z,6.48
2022-11-30T22:36:45.669Z,6.48
2022-11-30T22:39:15.185Z,6.50
2022-11-30T22:41:45.347Z,6.48
2022-11-30T22:44:14.698Z,6.47
2022-11-30T22:46:45.109Z,6.48
2022-11-30T22:49:19.866Z,6.48
2022-11-30T22:51:48.796Z,6.50
2022-11-30T22:54:16.677Z,6.49
2022-11-30T22:56:46.264Z,6.43
2022-11-30T22:59:15.201Z,6.44
2022-11-30T23:01:46.350Z,6.36
2022-11-30T23:04:15.847Z,6.30
2022-11-30T23:06:44.791Z,6.25
2022-11-30T23:09:15.848Z,6.21
2022-11-30T23:11:44.389Z,6.14
2022-11-30T23:14:12.242Z,6.09
2022-11-30T23:16:40.753Z,6.05
2022-11-30T23:19:10.093Z,6.01
2022-11-30T23:21:41.780Z,6.00
2022-11-30T23:24:13.896Z,5.97
2022-11-30T23:26:42.971Z,5.96
2022-11-30T23:29:13.994Z,5.91
2022-11-30T23:31:43.471Z,5.89
2022-11-30T23:34:15.394Z,5.86
2022-11-30T23:36:43.338Z,5.83
2022-11-30T23:39:13.276Z,5.81
2022-11-30T23:41:41.115Z,5.80
2022-11-30T23:44:09.961Z,5.79
2022-11-30T23:46:38.004Z,5.77
2022-11-30T23:49:06.495Z,5.76
2022-11-30T23:51:35.620Z,5.76
2022-11-30T23:54:03.422Z,5.73
2022-11-30T23:56:31.221Z,5.73
2022-11-30T23:58:59.047Z,5.73
